Bencomo Express — EAZD — position and weather

sailwx.info

Track history (hours):
 
Tides and Currents Weather Stations Pressure Air Temp Water Temp Dewpoint Dewpoint Depression Visibility Wind Speed Wind Dir Waves Ship Positions

Bencomo Express

Last reported at 2017-Sep-24 17:29 UTC. Time now 2017-Sep-24 17:39 UTC.
Position N 28°23' W 016°07'.

Length 96 m; draft 3.5 m.

Type: High speed craft. MMSI: 224840000.

Date/timePositionNaut miles runAvg speedWind from/ knotsBaromVisibWave heightAir tempDewpointWater temp
2017-Sep-24 17:29N 28°23' W 016°07'7 5.2
2017-Sep-24 16:03N 28°28' W 016°13'329.1
2017-Sep-24 15:58N 28°27' W 016°11'1634.1
2017-Sep-24 15:30N 28°17' W 015°57'1731.1
2017-Sep-24 14:59N 28°06' W 015°43'0 0.2
2017-Sep-24 14:27N 28°06' W 015°43'711.4
2017-Sep-24 13:51N 28°09' W 015°50'28 6.0
2017-Sep-24 09:07N 28°28' W 016°14'533.8
2017-Sep-24 08:59N 28°25' W 016°10'1933.7
2017-Sep-24 08:25N 28°13' W 015°54'1218.1
2017-Sep-24 07:46N 28°06' W 015°43'0 0.0
2017-Sep-24 07:24N 28°06' W 015°43'0 0.0
2017-Sep-24 06:46N 28°06' W 015°43'0 0.0
2017-Sep-24 06:27N 28°06' W 015°43'0 0.0
2017-Sep-24 05:51N 28°06' W 015°43'0 0.0
2017-Sep-24 05:26N 28°06' W 015°43'0 0.0
2017-Sep-24 04:56N 28°06' W 015°43'0 0.0
2017-Sep-24 04:27N 28°06' W 015°43'0 0.0
2017-Sep-24 03:53N 28°06' W 015°43'0 0.0
2017-Sep-24 03:26N 28°06' W 015°43'0 0.0
2017-Sep-24 02:58N 28°06' W 015°43'0 0.0
2017-Sep-24 02:30N 28°06' W 015°43'0 0.0
2017-Sep-24 01:41N 28°06' W 015°43'0 0.0
2017-Sep-24 01:21N 28°06' W 015°43'0 0.0
2017-Sep-24 00:47N 28°06' W 015°43'0 0.0
2017-Sep-24 00:26N 28°06' W 015°43'0 0.0
2017-Sep-23 23:52N 28°06' W 015°43'0 0.0
2017-Sep-23 23:25N 28°06' W 015°43'0 0.0
2017-Sep-23 23:00N 28°06' W 015°43'0 0.0
2017-Sep-23 22:30N 28°06' W 015°43'0 0.0
2017-Sep-23 21:45N 28°06' W 015°43'0 0.0
2017-Sep-23 21:18N 28°06' W 015°43'1 2.6
2017-Sep-23 20:58N 28°05' W 015°44'1 1.5
2017-Sep-23 20:24N 28°06' W 015°43'716.6
2017-Sep-23 19:58N 28°10' W 015°50'29 0.6
2017-Sep-21 20:14N 28°29' W 016°14'523.1
2017-Sep-21 20:00N 28°26' W 016°09'1631.7
2017-Sep-21 19:30N 28°15' W 015°56'1527.8
2017-Sep-21 18:58N 28°06' W 015°43'0 0.0
2017-Sep-21 18:25N 28°06' W 015°43'1020.7
2017-Sep-21 17:56N 28°11' W 015°52'1532.4
2017-Sep-21 17:28N 28°22' W 016°05'11 9.5
2017-Sep-21 16:20N 28°28' W 016°15'923.7
2017-Sep-21 15:57N 28°23' W 016°07'1430.9
2017-Sep-21 15:30N 28°14' W 015°54'1321.9
2017-Sep-21 14:54N 28°06' W 015°43'0 0.0
2017-Sep-21 14:19N 28°06' W 015°43'0 0.0
2017-Sep-21 13:59N 28°06' W 015°43'0 0.3
2017-Sep-21 13:26N 28°06' W 015°43'1228.3
2017-Sep-21 13:00N 28°13' W 015°53'1630.2
2017-Sep-21 12:28N 28°24' W 016°07'8 2.1
2017-Sep-21 08:46N 28°29' W 016°15'723.8
2017-Sep-21 08:28N 28°24' W 016°08'1631.6
2017-Sep-21 07:58N 28°14' W 015°54'1325.9
2017-Sep-21 07:28N 28°06' W 015°43'1 1.3
2017-Sep-21 06:44N 28°06' W 015°44'931.5
2017-Sep-21 06:28N 28°12' W 015°51'1731.3
2017-Sep-21 05:55N 28°23' W 016°06'9 1.0
2017-Sep-20 20:16N 28°29' W 016°14'1027.8
2017-Sep-20 19:55N 28°23' W 016°05'1330.4
2017-Sep-20 19:28N 28°14' W 015°54'1315.6
2017-Sep-20 18:40N 28°06' W 015°43'0 0.0
2017-Sep-20 18:24N 28°06' W 015°43'511.2
2017-Sep-20 18:00N 28°08' W 015°47'2034.0
2017-Sep-20 17:25N 28°21' W 016°04'1210.5
2017-Sep-20 16:17N 28°28' W 016°15'516.9
2017-Sep-20 16:00N 28°26' W 016°10'1631.6
2017-Sep-20 15:30N 28°16' W 015°56'1531.5
2017-Sep-20 15:00N 28°06' W 015°43'0 0.3
2017-Sep-20 13:59N 28°06' W 015°43'0 0.4
2017-Sep-20 13:26N 28°06' W 015°43'1226.6
2017-Sep-20 13:00N 28°12' W 015°54'1629.4
2017-Sep-20 12:27N 28°23' W 016°07'7 2.0
2017-Sep-20 08:40N 28°28' W 016°13'1232.9
2017-Sep-20 08:18N 28°21' W 016°02'1032.7
2017-Sep-20 08:00N 28°14' W 015°54'1311.4
2017-Sep-20 06:51N 28°06' W 015°43'1128.9
2017-Sep-20 06:28N 28°12' W 015°53'1531.7
2017-Sep-20 06:00N 28°22' W 016°05'1118.6
2017-Sep-20 05:26N 28°28' W 016°15'0 0.0
2017-Sep-20 05:00N 28°28' W 016°15'0 0.0
2017-Sep-20 04:30N 28°28' W 016°15'0 0.0
2017-Sep-20 04:00N 28°28' W 016°15'0 0.0
2017-Sep-20 03:30N 28°28' W 016°15'0 0.0
2017-Sep-20 03:00N 28°28' W 016°15'0 0.0
2017-Sep-20 02:30N 28°28' W 016°15'0 0.0
2017-Sep-20 02:00N 28°28' W 016°15'0 0.0
2017-Sep-20 01:30N 28°28' W 016°15'0 0.0
2017-Sep-20 01:00N 28°28' W 016°15'0 0.0
2017-Sep-20 00:30N 28°28' W 016°15'0 0.0
2017-Sep-20 00:00N 28°28' W 016°15'0 0.0
2017-Sep-19 23:30N 28°28' W 016°15'0 0.0
2017-Sep-19 23:00N 28°28' W 016°15'0 0.0
2017-Sep-19 22:30N 28°28' W 016°15'0 0.0
2017-Sep-19 22:00N 28°28' W 016°15'0 0.0
2017-Sep-19 21:30N 28°28' W 016°15'0 0.0
2017-Sep-19 21:00N 28°28' W 016°15'0 0.0
2017-Sep-19 20:30N 28°28' W 016°15'510.9
2017-Sep-19 20:00N 28°26' W 016°09'1632.1
2017-Sep-19 19:30N 28°15' W 015°56'1520.9
2017-Sep-19 18:49N 28°06' W 015°43'0 0.0
2017-Sep-19 18:18N 28°06' W 015°43'821.0
2017-Sep-19 17:54N 28°11' W 015°50'1433.6
2017-Sep-19 17:28N 28°20' W 016°03'1328.6
2017-Sep-19 17:00N 28°28' W 016°15'0 0.7
2017-Sep-19 16:30N 28°28' W 016°15'1017.0
2017-Sep-19 15:56N 28°22' W 016°06'1431.7
2017-Sep-19 15:30N 28°13' W 015°54'13 6.7
2017-Sep-19 13:36N 28°06' W 015°43'0 1.8
2017-Sep-19 13:21N 28°06' W 015°43'1129.5
2017-Sep-19 12:59N 28°12' W 015°53'1429.4
2017-Sep-19 12:31N 28°22' W 016°05'1121.5
2017-Sep-19 12:00N 28°28' W 016°15'0 0.0
2017-Sep-19 11:30N 28°28' W 016°15'0 0.0
2017-Sep-19 11:00N 28°28' W 016°15'0 0.0
2017-Sep-19 10:30N 28°28' W 016°15'0 0.0
2017-Sep-19 10:00N 28°28' W 016°15'0 0.0
2017-Sep-19 09:30N 28°28' W 016°15'0 0.0
2017-Sep-19 09:00N 28°28' W 016°15'1422.0
2017-Sep-19 08:22N 28°19' W 016°02'1431.8
2017-Sep-19 07:56N 28°11' W 015°50'818.7
2017-Sep-19 07:30N 28°06' W 015°43'0 0.3
2017-Sep-19 06:50N 28°06' W 015°43'1128.9
2017-Sep-19 06:28N 28°13' W 015°52'1329.2
2017-Sep-19 06:00N 28°22' W 016°03'1223.5
2017-Sep-19 05:30N 28°28' W 016°15'0 0.1
2017-Sep-19 04:55N 28°28' W 016°15'0 0.0
2017-Sep-19 04:30N 28°28' W 016°15'0 0.0
2017-Sep-19 04:00N 28°28' W 016°15'0 0.0
2017-Sep-19 03:30N 28°28' W 016°15'0 0.0
2017-Sep-19 02:57N 28°28' W 016°15'0 0.0
2017-Sep-19 02:30N 28°28' W 016°15'0 0.0
2017-Sep-19 02:00N 28°28' W 016°15'0 0.0
2017-Sep-19 01:25N 28°28' W 016°15'0 0.0
2017-Sep-19 01:00N 28°28' W 016°15'0 0.0
2017-Sep-19 00:30N 28°28' W 016°15'0 0.0
2017-Sep-18 23:56N 28°28' W 016°15'0 0.0
2017-Sep-18 23:29N 28°28' W 016°15'0 0.0
2017-Sep-18 22:55N 28°28' W 016°15'0 0.0
2017-Sep-18 22:30N 28°28' W 016°15'0 0.0
2017-Sep-18 22:00N 28°28' W 016°15'0 0.0
2017-Sep-18 21:30N 28°28' W 016°15'0 0.0
2017-Sep-18 21:00N 28°28' W 016°15'0 0.0
2017-Sep-18 20:20N 28°28' W 016°15'410.7
2017-Sep-18 19:58N 28°26' W 016°11'1632.9
2017-Sep-18 19:29N 28°16' W 015°58'1511.7
2017-Sep-18 18:10N 28°06' W 015°44'531.2
2017-Sep-18 18:00N 28°09' W 015°49'1531.2
2017-Sep-18 17:30N 28°20' W 016°02'1426.4
2017-Sep-18 16:58N 28°28' W 016°15'0 0.2
2017-Sep-18 16:26N 28°28' W 016°15'818.9
2017-Sep-18 16:00N 28°24' W 016°07'1829.3
2017-Sep-18 15:23N 28°12' W 015°51'10 5.0
2017-Sep-18 13:27N 28°06' W 015°43'1326.8
2017-Sep-18 12:59N 28°15' W 015°53'1627.2
2017-Sep-18 12:24N 28°26' W 016°06'816.5
2017-Sep-18 11:55N 28°28' W 016°15'0 0.0
2017-Sep-18 11:29N 28°28' W 016°15'0 0.0
2017-Sep-18 11:00N 28°28' W 016°15'0 0.0
2017-Sep-18 10:30N 28°28' W 016°15'0 0.0
2017-Sep-18 10:00N 28°28' W 016°15'0 0.0
2017-Sep-18 09:30N 28°28' W 016°15'0 0.0
2017-Sep-18 08:58N 28°28' W 016°15'1019.6
2017-Sep-18 08:26N 28°21' W 016°06'1533.3
2017-Sep-18 07:58N 28°12' W 015°52'1011.1
2017-Sep-18 07:04N 28°06' W 015°43'0 1.4
2017-Sep-18 06:56N 28°06' W 015°43'1226.9
2017-Sep-18 06:30N 28°13' W 015°54'1428.5
2017-Sep-18 06:00N 28°22' W 016°06'1019.3
2017-Sep-18 05:29N 28°28' W 016°15'0 0.0
2017-Sep-18 05:00N 28°28' W 016°15'0 0.0
2017-Sep-18 04:30N 28°28' W 016°15'0 0.0
2017-Sep-18 04:00N 28°28' W 016°15'0 0.0
2017-Sep-18 03:30N 28°28' W 016°15'0 0.0
2017-Sep-18 03:00N 28°28' W 016°15'0 0.0
2017-Sep-18 02:30N 28°28' W 016°15'0 0.0
2017-Sep-18 02:00N 28°28' W 016°15'0 0.0
2017-Sep-18 01:30N 28°28' W 016°15'0 0.0
2017-Sep-18 01:00N 28°28' W 016°15'0 0.0
2017-Sep-18 00:30N 28°28' W 016°15'0 0.0
2017-Sep-18 00:00N 28°28' W 016°15'0 0.0
2017-Sep-17 23:30N 28°28' W 016°15'0 0.0
2017-Sep-17 22:54N 28°28' W 016°15'0 0.0
2017-Sep-17 22:30N 28°28' W 016°15'0 0.0
2017-Sep-17 22:00N 28°28' W 016°15'0 0.1
2017-Sep-17 20:18N 28°28' W 016°15'821.6
2017-Sep-17 19:55N 28°24' W 016°06'1433.2
2017-Sep-17 19:29N 28°15' W 015°55'1411.7
2017-Sep-17 18:19N 28°06' W 015°43'1125.9
2017-Sep-17 17:54N 28°13' W 015°52'1332.2
2017-Sep-17 17:30N 28°22' W 016°03'12 8.7
2017-Sep-17 16:06N 28°29' W 016°14'431.7
2017-Sep-17 15:57N 28°26' W 016°10'1634.3
2017-Sep-17 15:29N 28°15' W 015°56'1528.8
2017-Sep-17 14:57N 28°06' W 015°43'0 0.0
2017-Sep-17 14:26N 28°06' W 015°43'1323.1
2017-Sep-17 13:53N 28°14' W 015°54'1332.7
2017-Sep-17 13:28N 28°23' W 016°05'1019.7
2017-Sep-17 12:59N 28°28' W 016°15'0 0.0
2017-Sep-17 12:30N 28°28' W 016°15'0 0.0
2017-Sep-17 12:00N 28°28' W 016°15'0 0.0
2017-Sep-17 11:29N 28°28' W 016°15'0 0.0
2017-Sep-17 11:00N 28°28' W 016°15'0 0.0
2017-Sep-17 10:30N 28°28' W 016°15'0 0.0
2017-Sep-17 09:57N 28°28' W 016°15'0 0.0
2017-Sep-17 09:29N 28°28' W 016°15'812.2
2017-Sep-17 08:51N 28°23' W 016°08'1234.9
2017-Sep-17 08:30N 28°15' W 015°57'16 7.7
2017-Sep-17 06:26N 28°06' W 015°43'0 0.0
2017-Sep-17 03:19N 28°06' W 015°43'0 0.0
2017-Sep-17 02:53N 28°06' W 015°43'0 0.0
2017-Sep-17 02:13N 28°06' W 015°43'0 0.0
2017-Sep-17 01:48N 28°06' W 015°43'0 0.0
2017-Sep-17 01:31N 28°06' W 015°43'0 0.0
2017-Sep-17 00:48N 28°06' W 015°43'0 0.0
2017-Sep-17 00:22N 28°06' W 015°43'0 0.0
2017-Sep-16 23:41N 28°06' W 015°43'0 0.1
2017-Sep-16 23:30N 28°06' W 015°43'0 0.0
2017-Sep-16 23:00N 28°06' W 015°43'0 0.0
2017-Sep-16 22:23N 28°06' W 015°43'0 0.0
2017-Sep-16 21:46N 28°06' W 015°43'0 0.0
2017-Sep-16 20:41N 28°06' W 015°43'0 0.2
2017-Sep-16 20:16N 28°06' W 015°43'723.3
2017-Sep-16 19:59N 28°10' W 015°48'1734.1
2017-Sep-16 19:29N 28°22' W 016°03'1211.6
2017-Sep-16 18:25N 28°28' W 016°15'1425.0
2017-Sep-16 17:53N 28°20' W 016°02'1232.9
2017-Sep-16 17:30N 28°13' W 015°51'1020.3
2017-Sep-16 17:00N 28°06' W 015°43'0 0.3
2017-Sep-16 16:25N 28°06' W 015°43'1227.4
2017-Sep-16 15:58N 28°14' W 015°53'1430.6
2017-Sep-16 15:30N 28°23' W 016°06'10 3.6
2017-Sep-16 12:49N 28°28' W 016°15'2930.2
2017-Sep-16 11:52N 28°11' W 015°48'716.4
2017-Sep-16 11:25N 28°06' W 015°43'0 0.3
2017-Sep-16 10:54N 28°06' W 015°43'1332.4
2017-Sep-16 10:29N 28°15' W 015°54'1632.9
2017-Sep-16 09:59N 28°25' W 016°09'6 5.2
2017-Sep-16 08:56N 28°28' W 016°14'1430.4
2017-Sep-16 08:29N 28°16' W 016°08'1530.4
2017-Sep-16 08:00N 28°09' W 015°54'1019.8
2017-Sep-16 07:29N 28°06' W 015°43'0 0.0
2017-Sep-16 04:31N 28°06' W 015°43'0 0.0
2017-Sep-16 04:04N 28°06' W 015°43'0 0.0
2017-Sep-16 03:37N 28°06' W 015°43'0 0.0
2017-Sep-16 03:12N 28°06' W 015°43'0 0.0
2017-Sep-16 00:23N 28°06' W 015°43'0 0.0
2017-Sep-15 23:54N 28°06' W 015°43'0 0.0
2017-Sep-15 22:52N 28°06' W 015°43'0 0.0
2017-Sep-15 21:22N 28°06' W 015°43'2 4.0
2017-Sep-15 20:55N 28°07' W 015°45'1431.0
2017-Sep-15 20:29N 28°15' W 015°57'1531.2
2017-Sep-15 20:00N 28°25' W 016°09'4 4.2
2017-Sep-15 18:55N 28°27' W 016°14'1329.3
2017-Sep-15 18:30N 28°16' W 016°07'1529.5
2017-Sep-15 17:59N 28°09' W 015°52'910.1
2017-Sep-15 17:08N 28°06' W 015°43'0 0.1
2017-Sep-15 16:59N 28°06' W 015°43'713.6
2017-Sep-15 16:27N 28°10' W 015°50'1328.0
2017-Sep-15 15:58N 28°19' W 016°01'1511.3
2017-Sep-15 14:37N 28°28' W 016°15'1 5.0
2017-Sep-15 14:28N 28°29' W 016°14'1429.6
2017-Sep-15 14:00N 28°16' W 016°06'1529.9
2017-Sep-15 13:30N 28°09' W 015°51'813.7
2017-Sep-15 12:54N 28°06' W 015°43'0 0.2
2017-Sep-15 12:30N 28°06' W 015°43'1325.6
2017-Sep-15 12:00N 28°13' W 015°54'1529.1
2017-Sep-15 11:28N 28°24' W 016°07'8 3.6
2017-Sep-15 09:16N 28°28' W 016°15'0 0.7
2017-Sep-15 09:00N 28°28' W 016°15'1122.2
2017-Sep-15 08:29N 28°18' W 016°08'1531.2
2017-Sep-15 08:00N 28°10' W 015°54'1121.8
2017-Sep-15 07:30N 28°06' W 015°43'0 0.1
2017-Sep-15 06:55N 28°06' W 015°43'1024.6
2017-Sep-15 06:29N 28°12' W 015°52'1528.5
2017-Sep-15 05:58N 28°22' W 016°05'11 2.3
2017-Sep-15 01:16N 28°28' W 016°15'0 0.0
2017-Sep-15 01:00N 28°28' W 016°15'0 0.0
2017-Sep-15 00:30N 28°28' W 016°15'0 0.0
2017-Sep-15 00:00N 28°28' W 016°15'0 0.1
2017-Sep-14 20:25N 28°28' W 016°15'1625.7
2017-Sep-14 19:48N 28°18' W 016°01'1030.3
2017-Sep-14 19:28N 28°12' W 015°52'1010.8
2017-Sep-14 18:32N 28°06' W 015°43'0 2.0
2017-Sep-14 18:30N 28°06' W 015°43'1527.8
2017-Sep-14 17:58N 28°15' W 015°56'  
Track history (hours):
 
Tides and Currents Weather Stations Pressure Air Temp Water Temp Dewpoint Dewpoint Depression Visibility Wind Speed Wind Dir Waves Ship Positions

Bencomo Express

Last reported at 2017-Sep-24 17:29 UTC. Time now 2017-Sep-24 17:39 UTC.
Position N 28°23' W 016°07'.

Length 96 m; draft 3.5 m.

Type: High speed craft. MMSI: 224840000.

Date/timePositionNaut miles runAvg speedWind from/ knotsBaromVisibWave heightAir tempDewpointWater temp
2017-Sep-24 17:29N 28°23' W 016°07'7 5.2
2017-Sep-24 16:03N 28°28' W 016°13'329.1
2017-Sep-24 15:58N 28°27' W 016°11'1634.1
2017-Sep-24 15:30N 28°17' W 015°57'1731.1
2017-Sep-24 14:59N 28°06' W 015°43'0 0.2
2017-Sep-24 14:27N 28°06' W 015°43'711.4
2017-Sep-24 13:51N 28°09' W 015°50'28 6.0
2017-Sep-24 09:07N 28°28' W 016°14'533.8
2017-Sep-24 08:59N 28°25' W 016°10'1933.7
2017-Sep-24 08:25N 28°13' W 015°54'1218.1
2017-Sep-24 07:46N 28°06' W 015°43'0 0.0
2017-Sep-24 07:24N 28°06' W 015°43'0 0.0
2017-Sep-24 06:46N 28°06' W 015°43'0 0.0
2017-Sep-24 06:27N 28°06' W 015°43'0 0.0
2017-Sep-24 05:51N 28°06' W 015°43'0 0.0
2017-Sep-24 05:26N 28°06' W 015°43'0 0.0
2017-Sep-24 04:56N 28°06' W 015°43'0 0.0
2017-Sep-24 04:27N 28°06' W 015°43'0 0.0
2017-Sep-24 03:53N 28°06' W 015°43'0 0.0
2017-Sep-24 03:26N 28°06' W 015°43'0 0.0
2017-Sep-24 02:58N 28°06' W 015°43'0 0.0
2017-Sep-24 02:30N 28°06' W 015°43'0 0.0
2017-Sep-24 01:41N 28°06' W 015°43'0 0.0
2017-Sep-24 01:21N 28°06' W 015°43'0 0.0
2017-Sep-24 00:47N 28°06' W 015°43'0 0.0
2017-Sep-24 00:26N 28°06' W 015°43'0 0.0
2017-Sep-23 23:52N 28°06' W 015°43'0 0.0
2017-Sep-23 23:25N 28°06' W 015°43'0 0.0
2017-Sep-23 23:00N 28°06' W 015°43'0 0.0
2017-Sep-23 22:30N 28°06' W 015°43'0 0.0
2017-Sep-23 21:45N 28°06' W 015°43'0 0.0
2017-Sep-23 21:18N 28°06' W 015°43'1 2.6
2017-Sep-23 20:58N 28°05' W 015°44'1 1.5
2017-Sep-23 20:24N 28°06' W 015°43'716.6
2017-Sep-23 19:58N 28°10' W 015°50'29 0.6
2017-Sep-21 20:14N 28°29' W 016°14'523.1
2017-Sep-21 20:00N 28°26' W 016°09'1631.7
2017-Sep-21 19:30N 28°15' W 015°56'1527.8
2017-Sep-21 18:58N 28°06' W 015°43'0 0.0
2017-Sep-21 18:25N 28°06' W 015°43'1020.7
2017-Sep-21 17:56N 28°11' W 015°52'1532.4
2017-Sep-21 17:28N 28°22' W 016°05'11 9.5
2017-Sep-21 16:20N 28°28' W 016°15'923.7
2017-Sep-21 15:57N 28°23' W 016°07'1430.9
2017-Sep-21 15:30N 28°14' W 015°54'1321.9
2017-Sep-21 14:54N 28°06' W 015°43'0 0.0
2017-Sep-21 14:19N 28°06' W 015°43'0 0.0
2017-Sep-21 13:59N 28°06' W 015°43'0 0.3
2017-Sep-21 13:26N 28°06' W 015°43'1228.3
2017-Sep-21 13:00N 28°13' W 015°53'1630.2
2017-Sep-21 12:28N 28°24' W 016°07'8 2.1
2017-Sep-21 08:46N 28°29' W 016°15'723.8
2017-Sep-21 08:28N 28°24' W 016°08'1631.6
2017-Sep-21 07:58N 28°14' W 015°54'1325.9
2017-Sep-21 07:28N 28°06' W 015°43'1 1.3
2017-Sep-21 06:44N 28°06' W 015°44'931.5
2017-Sep-21 06:28N 28°12' W 015°51'1731.3
2017-Sep-21 05:55N 28°23' W 016°06'9 1.0
2017-Sep-20 20:16N 28°29' W 016°14'1027.8
2017-Sep-20 19:55N 28°23' W 016°05'1330.4
2017-Sep-20 19:28N 28°14' W 015°54'1315.6
2017-Sep-20 18:40N 28°06' W 015°43'0 0.0
2017-Sep-20 18:24N 28°06' W 015°43'511.2
2017-Sep-20 18:00N 28°08' W 015°47'2034.0
2017-Sep-20 17:25N 28°21' W 016°04'1210.5
2017-Sep-20 16:17N 28°28' W 016°15'516.9
2017-Sep-20 16:00N 28°26' W 016°10'1631.6
2017-Sep-20 15:30N 28°16' W 015°56'1531.5
2017-Sep-20 15:00N 28°06' W 015°43'0 0.3
2017-Sep-20 13:59N 28°06' W 015°43'0 0.4
2017-Sep-20 13:26N 28°06' W 015°43'1226.6
2017-Sep-20 13:00N 28°12' W 015°54'1629.4
2017-Sep-20 12:27N 28°23' W 016°07'7 2.0
2017-Sep-20 08:40N 28°28' W 016°13'1232.9
2017-Sep-20 08:18N 28°21' W 016°02'1032.7
2017-Sep-20 08:00N 28°14' W 015°54'1311.4
2017-Sep-20 06:51N 28°06' W 015°43'1128.9
2017-Sep-20 06:28N 28°12' W 015°53'1531.7
2017-Sep-20 06:00N 28°22' W 016°05'1118.6
2017-Sep-20 05:26N 28°28' W 016°15'0 0.0
2017-Sep-20 05:00N 28°28' W 016°15'0 0.0
2017-Sep-20 04:30N 28°28' W 016°15'0 0.0
2017-Sep-20 04:00N 28°28' W 016°15'0 0.0
2017-Sep-20 03:30N 28°28' W 016°15'0 0.0
2017-Sep-20 03:00N 28°28' W 016°15'0 0.0
2017-Sep-20 02:30N 28°28' W 016°15'0 0.0
2017-Sep-20 02:00N 28°28' W 016°15'0 0.0
2017-Sep-20 01:30N 28°28' W 016°15'0 0.0
2017-Sep-20 01:00N 28°28' W 016°15'0 0.0
2017-Sep-20 00:30N 28°28' W 016°15'0 0.0
2017-Sep-20 00:00N 28°28' W 016°15'0 0.0
2017-Sep-19 23:30N 28°28' W 016°15'0 0.0
2017-Sep-19 23:00N 28°28' W 016°15'0 0.0
2017-Sep-19 22:30N 28°28' W 016°15'0 0.0
2017-Sep-19 22:00N 28°28' W 016°15'0 0.0
2017-Sep-19 21:30N 28°28' W 016°15'0 0.0
2017-Sep-19 21:00N 28°28' W 016°15'0 0.0
2017-Sep-19 20:30N 28°28' W 016°15'510.9
2017-Sep-19 20:00N 28°26' W 016°09'1632.1
2017-Sep-19 19:30N 28°15' W 015°56'1520.9
2017-Sep-19 18:49N 28°06' W 015°43'0 0.0
2017-Sep-19 18:18N 28°06' W 015°43'821.0
2017-Sep-19 17:54N 28°11' W 015°50'1433.6
2017-Sep-19 17:28N 28°20' W 016°03'1328.6
2017-Sep-19 17:00N 28°28' W 016°15'0 0.7
2017-Sep-19 16:30N 28°28' W 016°15'1017.0
2017-Sep-19 15:56N 28°22' W 016°06'1431.7
2017-Sep-19 15:30N 28°13' W 015°54'13 6.7
2017-Sep-19 13:36N 28°06' W 015°43'0 1.8
2017-Sep-19 13:21N 28°06' W 015°43'1129.5
2017-Sep-19 12:59N 28°12' W 015°53'1429.4
2017-Sep-19 12:31N 28°22' W 016°05'1121.5
2017-Sep-19 12:00N 28°28' W 016°15'0 0.0
2017-Sep-19 11:30N 28°28' W 016°15'0 0.0
2017-Sep-19 11:00N 28°28' W 016°15'0 0.0
2017-Sep-19 10:30N 28°28' W 016°15'0 0.0
2017-Sep-19 10:00N 28°28' W 016°15'0 0.0
2017-Sep-19 09:30N 28°28' W 016°15'0 0.0
2017-Sep-19 09:00N 28°28' W 016°15'1422.0
2017-Sep-19 08:22N 28°19' W 016°02'1431.8
2017-Sep-19 07:56N 28°11' W 015°50'818.7
2017-Sep-19 07:30N 28°06' W 015°43'0 0.3
2017-Sep-19 06:50N 28°06' W 015°43'1128.9
2017-Sep-19 06:28N 28°13' W 015°52'1329.2
2017-Sep-19 06:00N 28°22' W 016°03'1223.5
2017-Sep-19 05:30N 28°28' W 016°15'0 0.1
2017-Sep-19 04:55N 28°28' W 016°15'0 0.0
2017-Sep-19 04:30N 28°28' W 016°15'0 0.0
2017-Sep-19 04:00N 28°28' W 016°15'0 0.0
2017-Sep-19 03:30N 28°28' W 016°15'0 0.0
2017-Sep-19 02:57N 28°28' W 016°15'0 0.0
2017-Sep-19 02:30N 28°28' W 016°15'0 0.0
2017-Sep-19 02:00N 28°28' W 016°15'0 0.0
2017-Sep-19 01:25N 28°28' W 016°15'0 0.0
2017-Sep-19 01:00N 28°28' W 016°15'0 0.0
2017-Sep-19 00:30N 28°28' W 016°15'0 0.0
2017-Sep-18 23:56N 28°28' W 016°15'0 0.0
2017-Sep-18 23:29N 28°28' W 016°15'0 0.0
2017-Sep-18 22:55N 28°28' W 016°15'0 0.0
2017-Sep-18 22:30N 28°28' W 016°15'0 0.0
2017-Sep-18 22:00N 28°28' W 016°15'0 0.0
2017-Sep-18 21:30N 28°28' W 016°15'0 0.0
2017-Sep-18 21:00N 28°28' W 016°15'0 0.0
2017-Sep-18 20:20N 28°28' W 016°15'410.7
2017-Sep-18 19:58N 28°26' W 016°11'1632.9
2017-Sep-18 19:29N 28°16' W 015°58'1511.7
2017-Sep-18 18:10N 28°06' W 015°44'531.2
2017-Sep-18 18:00N 28°09' W 015°49'1531.2
2017-Sep-18 17:30N 28°20' W 016°02'1426.4
2017-Sep-18 16:58N 28°28' W 016°15'0 0.2
2017-Sep-18 16:26N 28°28' W 016°15'818.9
2017-Sep-18 16:00N 28°24' W 016°07'1829.3
2017-Sep-18 15:23N 28°12' W 015°51'10 5.0
2017-Sep-18 13:27N 28°06' W 015°43'1326.8
2017-Sep-18 12:59N 28°15' W 015°53'1627.2
2017-Sep-18 12:24N 28°26' W 016°06'816.5
2017-Sep-18 11:55N 28°28' W 016°15'0 0.0
2017-Sep-18 11:29N 28°28' W 016°15'0 0.0
2017-Sep-18 11:00N 28°28' W 016°15'0 0.0
2017-Sep-18 10:30N 28°28' W 016°15'0 0.0
2017-Sep-18 10:00N 28°28' W 016°15'0 0.0
2017-Sep-18 09:30N 28°28' W 016°15'0 0.0
2017-Sep-18 08:58N 28°28' W 016°15'1019.6
2017-Sep-18 08:26N 28°21' W 016°06'1533.3
2017-Sep-18 07:58N 28°12' W 015°52'1011.1
2017-Sep-18 07:04N 28°06' W 015°43'0 1.4
2017-Sep-18 06:56N 28°06' W 015°43'1226.9
2017-Sep-18 06:30N 28°13' W 015°54'1428.5
2017-Sep-18 06:00N 28°22' W 016°06'1019.3
2017-Sep-18 05:29N 28°28' W 016°15'0 0.0
2017-Sep-18 05:00N 28°28' W 016°15'0 0.0
2017-Sep-18 04:30N 28°28' W 016°15'0 0.0
2017-Sep-18 04:00N 28°28' W 016°15'0 0.0
2017-Sep-18 03:30N 28°28' W 016°15'0 0.0
2017-Sep-18 03:00N 28°28' W 016°15'0 0.0
2017-Sep-18 02:30N 28°28' W 016°15'0 0.0
2017-Sep-18 02:00N 28°28' W 016°15'0 0.0
2017-Sep-18 01:30N 28°28' W 016°15'0 0.0
2017-Sep-18 01:00N 28°28' W 016°15'0 0.0
2017-Sep-18 00:30N 28°28' W 016°15'0 0.0
2017-Sep-18 00:00N 28°28' W 016°15'0 0.0
2017-Sep-17 23:30N 28°28' W 016°15'0 0.0
2017-Sep-17 22:54N 28°28' W 016°15'0 0.0
2017-Sep-17 22:30N 28°28' W 016°15'0 0.0
2017-Sep-17 22:00N 28°28' W 016°15'0 0.1
2017-Sep-17 20:18N 28°28' W 016°15'821.6
2017-Sep-17 19:55N 28°24' W 016°06'1433.2
2017-Sep-17 19:29N 28°15' W 015°55'1411.7
2017-Sep-17 18:19N 28°06' W 015°43'1125.9
2017-Sep-17 17:54N 28°13' W 015°52'1332.2
2017-Sep-17 17:30N 28°22' W 016°03'12 8.7
2017-Sep-17 16:06N 28°29' W 016°14'431.7
2017-Sep-17 15:57N 28°26' W 016°10'1634.3
2017-Sep-17 15:29N 28°15' W 015°56'1528.8
2017-Sep-17 14:57N 28°06' W 015°43'0 0.0
2017-Sep-17 14:26N 28°06' W 015°43'1323.1
2017-Sep-17 13:53N 28°14' W 015°54'1332.7
2017-Sep-17 13:28N 28°23' W 016°05'1019.7
2017-Sep-17 12:59N 28°28' W 016°15'0 0.0
2017-Sep-17 12:30N 28°28' W 016°15'0 0.0
2017-Sep-17 12:00N 28°28' W 016°15'0 0.0
2017-Sep-17 11:29N 28°28' W 016°15'0 0.0
2017-Sep-17 11:00N 28°28' W 016°15'0 0.0
2017-Sep-17 10:30N 28°28' W 016°15'0 0.0
2017-Sep-17 09:57N 28°28' W 016°15'0 0.0
2017-Sep-17 09:29N 28°28' W 016°15'812.2
2017-Sep-17 08:51N 28°23' W 016°08'1234.9
2017-Sep-17 08:30N 28°15' W 015°57'16 7.7
2017-Sep-17 06:26N 28°06' W 015°43'0 0.0
2017-Sep-17 03:19N 28°06' W 015°43'0 0.0
2017-Sep-17 02:53N 28°06' W 015°43'0 0.0
2017-Sep-17 02:13N 28°06' W 015°43'0 0.0
2017-Sep-17 01:48N 28°06' W 015°43'0 0.0
2017-Sep-17 01:31N 28°06' W 015°43'0 0.0
2017-Sep-17 00:48N 28°06' W 015°43'0 0.0
2017-Sep-17 00:22N 28°06' W 015°43'0 0.0
2017-Sep-16 23:41N 28°06' W 015°43'0 0.1
2017-Sep-16 23:30N 28°06' W 015°43'0 0.0
2017-Sep-16 23:00N 28°06' W 015°43'0 0.0
2017-Sep-16 22:23N 28°06' W 015°43'0 0.0
2017-Sep-16 21:46N 28°06' W 015°43'0 0.0
2017-Sep-16 20:41N 28°06' W 015°43'0 0.2
2017-Sep-16 20:16N 28°06' W 015°43'723.3
2017-Sep-16 19:59N 28°10' W 015°48'1734.1
2017-Sep-16 19:29N 28°22' W 016°03'1211.6
2017-Sep-16 18:25N 28°28' W 016°15'1425.0
2017-Sep-16 17:53N 28°20' W 016°02'1232.9
2017-Sep-16 17:30N 28°13' W 015°51'1020.3
2017-Sep-16 17:00N 28°06' W 015°43'0 0.3
2017-Sep-16 16:25N 28°06' W 015°43'1227.4
2017-Sep-16 15:58N 28°14' W 015°53'1430.6
2017-Sep-16 15:30N 28°23' W 016°06'10 3.6
2017-Sep-16 12:49N 28°28' W 016°15'2930.2
2017-Sep-16 11:52N 28°11' W 015°48'716.4
2017-Sep-16 11:25N 28°06' W 015°43'0 0.3
2017-Sep-16 10:54N 28°06' W 015°43'1332.4
2017-Sep-16 10:29N 28°15' W 015°54'1632.9
2017-Sep-16 09:59N 28°25' W 016°09'6 5.2
2017-Sep-16 08:56N 28°28' W 016°14'1430.4
2017-Sep-16 08:29N 28°16' W 016°08'1530.4
2017-Sep-16 08:00N 28°09' W 015°54'1019.8
2017-Sep-16 07:29N 28°06' W 015°43'0 0.0
2017-Sep-16 04:31N 28°06' W 015°43'0 0.0
2017-Sep-16 04:04N 28°06' W 015°43'0 0.0
2017-Sep-16 03:37N 28°06' W 015°43'0 0.0
2017-Sep-16 03:12N 28°06' W 015°43'0 0.0
2017-Sep-16 00:23N 28°06' W 015°43'0 0.0
2017-Sep-15 23:54N 28°06' W 015°43'0 0.0
2017-Sep-15 22:52N 28°06' W 015°43'0 0.0
2017-Sep-15 21:22N 28°06' W 015°43'2 4.0
2017-Sep-15 20:55N 28°07' W 015°45'1431.0
2017-Sep-15 20:29N 28°15' W 015°57'1531.2
2017-Sep-15 20:00N 28°25' W 016°09'4 4.2
2017-Sep-15 18:55N 28°27' W 016°14'1329.3
2017-Sep-15 18:30N 28°16' W 016°07'1529.5
2017-Sep-15 17:59N 28°09' W 015°52'910.1
2017-Sep-15 17:08N 28°06' W 015°43'0 0.1
2017-Sep-15 16:59N 28°06' W 015°43'713.6
2017-Sep-15 16:27N 28°10' W 015°50'1328.0
2017-Sep-15 15:58N 28°19' W 016°01'1511.3
2017-Sep-15 14:37N 28°28' W 016°15'1 5.0
2017-Sep-15 14:28N 28°29' W 016°14'1429.6
2017-Sep-15 14:00N 28°16' W 016°06'1529.9
2017-Sep-15 13:30N 28°09' W 015°51'813.7
2017-Sep-15 12:54N 28°06' W 015°43'0 0.2
2017-Sep-15 12:30N 28°06' W 015°43'1325.6
2017-Sep-15 12:00N 28°13' W 015°54'1529.1
2017-Sep-15 11:28N 28°24' W 016°07'8 3.6
2017-Sep-15 09:16N 28°28' W 016°15'0 0.7
2017-Sep-15 09:00N 28°28' W 016°15'1122.2
2017-Sep-15 08:29N 28°18' W 016°08'1531.2
2017-Sep-15 08:00N 28°10' W 015°54'1121.8
2017-Sep-15 07:30N 28°06' W 015°43'0 0.1
2017-Sep-15 06:55N 28°06' W 015°43'1024.6
2017-Sep-15 06:29N 28°12' W 015°52'1528.5
2017-Sep-15 05:58N 28°22' W 016°05'11 2.3
2017-Sep-15 01:16N 28°28' W 016°15'0 0.0
2017-Sep-15 01:00N 28°28' W 016°15'0 0.0
2017-Sep-15 00:30N 28°28' W 016°15'0 0.0
2017-Sep-15 00:00N 28°28' W 016°15'0 0.1
2017-Sep-14 20:25N 28°28' W 016°15'1625.7
2017-Sep-14 19:48N 28°18' W 016°01'1030.3
2017-Sep-14 19:28N 28°12' W 015°52'1010.8
2017-Sep-14 18:32N 28°06' W 015°43'0 2.0
2017-Sep-14 18:30N 28°06' W 015°43'1527.8
2017-Sep-14 17:58N 28°15' W 015°56'  

Dump ship's entire track history